Hlavní strana
METAR-TAF:

METAR-TAF

Letiště :

Mendoza, Argentina

zeměpisná šířka: 32-50S, zeměpisná délka: 068-47W, výška: 705 m

Aktuální stav počasí

Zpráva byla vytvořena před 47 minutami, v 08:00 UTC
Bezvětří
Teplota 10°C
Vlhkost vzduchu 57%
Tlak 1014 hPa
Viditelnost 10 km a více
Žádná oblačnost pod 1500 m, nevyskytují se cumulonimby.

METAR: SAME 280800Z 00000KT CAVOK 10/02 Q1014

Čas: 05:47 (08:47 UTC)

Předpověď počasí

Zpráva byla vytvořena před 3 hodinami a 47 minutami, v 05:00 UTC
Předpověď platná od 28 v 06 UTC do 29 v 06 UTC
Západojihozápadní vítr 5 kt
Viditelnost 10 km a více
Žádná oblačnost pod 1500 m, nevyskytují se cumulonimby.

TAF: SAME 280500Z 2806/2906 25005KT CAVOK TX21/2820Z TN05/2811Z

Stav a předpovědi počasí z více než 4 000 letišť (zprávy METAR a TAF).

Červené a žluté tečky na mapě představují dostupné meteorologické stanice.

Když kurzor umístíte na tečku, zobrazí se název stanice.

Pak kliknutím zobrazíte stav a předpověď počasí.

Chcete-li změnit mapu, kliknutím na zelené tlačítko se znaménkem +mapu přiblížíte, kliknutím na zelené tlačítko se znaménkem – mapu oddálíte a kliknutím na zelené šipky přejdete na sousední mapy.


METAR-TAF: